createdAt,value
2022-09-04T00:02:51.245Z,17.16
2022-09-04T00:05:23.705Z,17.19
2022-09-04T00:08:15.550Z,17.24
2022-09-04T00:11:20.286Z,17.23
2022-09-04T00:13:56.768Z,17.21
2022-09-04T00:16:34.124Z,17.17
2022-09-04T00:19:14.148Z,17.20
2022-09-04T00:21:58.458Z,17.16
2022-09-04T00:24:32.266Z,17.00
2022-09-04T00:27:13.864Z,17.03
2022-09-04T00:29:48.989Z,16.99
2022-09-04T00:32:41.286Z,16.91
2022-09-04T00:35:21.168Z,16.90
2022-09-04T00:37:59.047Z,16.84
2022-09-04T00:40:33.092Z,16.72
2022-09-04T00:43:26.730Z,16.81
2022-09-04T00:46:37.451Z,16.71
2022-09-04T00:49:03.838Z,16.80
2022-09-04T00:51:43.784Z,16.79
2022-09-04T00:54:19.106Z,16.80
2022-09-04T00:57:14.017Z,16.80
2022-09-04T01:00:20.190Z,17.01
2022-09-04T01:03:35.034Z,17.10
2022-09-04T01:06:08.090Z,17.17
2022-09-04T01:08:49.679Z,17.24
2022-09-04T01:11:56.610Z,17.26
2022-09-04T01:14:41.771Z,17.32
2022-09-04T01:17:10.965Z,17.23
2022-09-04T01:20:07.009Z,17.22
2022-09-04T01:22:45.043Z,17.21
2022-09-04T01:25:32.934Z,17.19
2022-09-04T01:28:05.974Z,17.16
2022-09-04T01:30:44.016Z,17.13
2022-09-04T01:33:30.873Z,17.15
2022-09-04T01:36:17.356Z,17.17
2022-09-04T01:38:53.752Z,17.13
2022-09-04T01:41:27.960Z,17.08
2022-09-04T01:43:54.995Z,17.05
2022-09-04T01:46:38.976Z,17.07
2022-09-04T01:49:19.305Z,17.09
2022-09-04T01:51:51.973Z,17.13
2022-09-04T01:54:49.039Z,17.24
2022-09-04T01:57:59.111Z,17.29
2022-09-04T02:00:32.808Z,17.20
2022-09-04T02:03:22.326Z,17.24
2022-09-04T02:06:22.241Z,17.30
2022-09-04T02:09:34.076Z,17.32
2022-09-04T02:12:42.780Z,17.29
2022-09-04T02:15:37.812Z,17.30
2022-09-04T02:18:23.178Z,17.27
2022-09-04T02:21:05.611Z,17.15
2022-09-04T02:23:38.636Z,17.27
2022-09-04T02:26:20.416Z,17.25
2022-09-04T02:28:47.534Z,17.25
2022-09-04T02:31:30.783Z,17.22
2022-09-04T02:34:13.268Z,17.17
2022-09-04T02:36:58.593Z,17.12
2022-09-04T02:39:25.119Z,17.10
2022-09-04T02:41:54.579Z,17.07
2022-09-04T02:44:33.363Z,17.08
2022-09-04T02:47:29.189Z,17.07
2022-09-04T02:50:07.520Z,17.06
2022-09-04T02:53:03.286Z,17.02
2022-09-04T02:55:57.410Z,17.02
2022-09-04T02:58:44.127Z,17.03
2022-09-04T03:01:31.219Z,17.04
2022-09-04T03:04:24.674Z,16.93
2022-09-04T03:06:57.250Z,17.12
2022-09-04T03:09:28.225Z,17.19
2022-09-04T03:12:03.858Z,17.22
2022-09-04T03:14:40.682Z,17.22
2022-09-04T03:17:20.990Z,17.23
2022-09-04T03:20:00.515Z,17.15
2022-09-04T03:22:31.197Z,17.31
2022-09-04T03:25:07.363Z,17.19
2022-09-04T03:27:34.697Z,17.24
2022-09-04T03:30:12.805Z,17.34
2022-09-04T03:33:08.872Z,17.53
2022-09-04T03:35:47.623Z,17.58
2022-09-04T03:39:02.792Z,17.63
2022-09-04T03:45:02.654Z,17.75
2022-09-04T03:47:37.273Z,17.73
2022-09-04T03:50:18.433Z,17.67
2022-09-04T03:53:10.549Z,17.65
2022-09-04T03:56:07.301Z,17.64
2022-09-04T03:58:45.771Z,17.50
2022-09-04T04:01:40.337Z,17.67
2022-09-04T04:04:06.846Z,17.57
2022-09-04T04:07:01.704Z,17.74
2022-09-04T04:09:42.551Z,17.79
2022-09-04T04:12:13.159Z,17.77
2022-09-04T04:14:46.177Z,17.74
2022-09-04T04:17:50.651Z,17.72
2022-09-04T04:20:36.765Z,17.71
2022-09-04T04:23:24.795Z,17.66
2022-09-04T04:26:10.890Z,17.63
2022-09-04T04:28:59.931Z,17.48
2022-09-04T04:31:42.022Z,17.50
2022-09-04T04:34:33.665Z,17.63
2022-09-04T04:37:10.719Z,17.69
2022-09-04T04:39:49.352Z,17.59
2022-09-04T04:42:22.941Z,17.77
2022-09-04T04:45:18.298Z,17.79
2022-09-04T04:48:09.461Z,17.76
2022-09-04T04:50:44.051Z,17.70
2022-09-04T04:53:49.167Z,17.69
2022-09-04T04:56:26.421Z,17.65
2022-09-04T04:59:20.421Z,17.69
2022-09-04T05:02:19.299Z,17.68
2022-09-04T05:05:07.425Z,17.57
2022-09-04T05:08:08.081Z,17.60
2022-09-04T05:10:41.035Z,17.70
2022-09-04T05:13:26.798Z,17.66
2022-09-04T05:16:18.069Z,17.62
2022-09-04T05:19:11.143Z,17.60
2022-09-04T05:21:47.488Z,17.64
2022-09-04T05:24:32.521Z,17.71
2022-09-04T05:27:10.006Z,17.80
2022-09-04T05:29:55.368Z,17.84
2022-09-04T05:32:37.471Z,17.91
2022-09-04T05:35:41.585Z,17.94
2022-09-04T05:38:26.159Z,17.85
2022-09-04T05:40:58.655Z,17.97
2022-09-04T05:43:52.734Z,18.00
2022-09-04T05:46:40.424Z,17.99
2022-09-04T05:49:18.455Z,18.05
2022-09-04T05:51:50.722Z,17.99
2022-09-04T05:54:41.601Z,18.20
2022-09-04T05:57:16.726Z,18.28
2022-09-04T06:00:06.671Z,18.29
2022-09-04T06:03:10.424Z,18.35
2022-09-04T06:05:59.047Z,18.26
2022-09-04T06:08:38.520Z,18.29
2022-09-04T06:11:20.193Z,18.35
2022-09-04T06:14:15.880Z,18.51
2022-09-04T06:16:57.248Z,18.50
2022-09-04T06:19:53.396Z,18.31
2022-09-04T06:22:48.556Z,18.28
2022-09-04T06:25:49.238Z,18.33
2022-09-04T06:28:37.934Z,18.38
2022-09-04T06:31:20.500Z,18.35
2022-09-04T06:33:49.801Z,18.31
2022-09-04T06:36:51.591Z,18.20
2022-09-04T06:39:43.355Z,17.97
2022-09-04T06:42:31.581Z,17.83
2022-09-04T06:45:01.145Z,17.87
2022-09-04T06:47:49.606Z,17.87
2022-09-04T06:50:22.879Z,17.82
2022-09-04T06:53:18.274Z,17.82
2022-09-04T06:55:47.756Z,17.97
2022-09-04T06:58:26.958Z,18.06
2022-09-04T07:01:02.683Z,18.09
2022-09-04T07:03:54.014Z,18.36
2022-09-04T07:06:21.476Z,18.35
2022-09-04T07:08:59.877Z,18.55
2022-09-04T07:11:59.219Z,18.53
2022-09-04T07:14:54.099Z,18.78
2022-09-04T07:17:29.586Z,18.83
2022-09-04T07:20:20.024Z,18.92
2022-09-04T07:22:58.003Z,19.01
2022-09-04T07:25:30.580Z,19.06
2022-09-04T07:28:34.133Z,19.07
2022-09-04T07:31:09.074Z,19.06
2022-09-04T07:33:46.075Z,19.07
2022-09-04T07:36:44.601Z,18.95
2022-09-04T07:39:22.358Z,18.71
2022-09-04T07:42:24.076Z,18.93
2022-09-04T07:45:00.716Z,19.04
2022-09-04T07:47:36.097Z,19.15
2022-09-04T07:50:17.743Z,19.23
2022-09-04T07:53:04.225Z,19.26
2022-09-04T07:55:46.936Z,19.18
2022-09-04T07:58:41.382Z,19.39
2022-09-04T08:01:19.804Z,19.28
2022-09-04T08:03:54.548Z,19.39
2022-09-04T08:06:24.334Z,19.35
2022-09-04T08:09:15.828Z,19.42
2022-09-04T08:11:52.570Z,19.36
2022-09-04T08:14:54.947Z,19.46
2022-09-04T08:17:27.521Z,19.72
2022-09-04T08:19:56.907Z,19.84
2022-09-04T08:23:01.931Z,19.80
2022-09-04T08:25:43.054Z,19.82
2022-09-04T08:28:33.350Z,20.09
2022-09-04T08:31:25.447Z,20.27
2022-09-04T08:34:29.307Z,20.45
2022-09-04T08:37:07.677Z,20.61
2022-09-04T08:39:43.105Z,20.69
2022-09-04T08:42:44.960Z,20.60
2022-09-04T08:45:29.836Z,20.75
2022-09-04T08:48:25.725Z,20.74
2022-09-04T08:51:07.483Z,20.93
2022-09-04T08:53:47.347Z,20.94
2022-09-04T08:56:45.081Z,21.07
2022-09-04T08:59:33.317Z,20.76
2022-09-04T09:02:26.333Z,20.38
2022-09-04T09:05:01.980Z,20.07
2022-09-04T09:07:49.133Z,20.43
2022-09-04T09:11:03.317Z,20.76
2022-09-04T09:13:51.741Z,20.74
2022-09-04T09:16:42.868Z,20.79
2022-09-04T09:19:22.699Z,20.95
2022-09-04T09:22:04.388Z,21.21
2022-09-04T09:24:51.734Z,21.16
2022-09-04T09:27:47.613Z,21.00
2022-09-04T09:30:20.928Z,20.91
2022-09-04T09:33:23.349Z,21.06
2022-09-04T09:36:08.761Z,21.34
2022-09-04T09:38:37.906Z,21.50
2022-09-04T09:41:33.500Z,20.81
2022-09-04T09:44:22.900Z,21.01
2022-09-04T09:47:18.358Z,21.27
2022-09-04T09:49:47.792Z,21.44
2022-09-04T09:52:34.716Z,21.51
2022-09-04T09:55:45.624Z,21.55
2022-09-04T09:58:32.730Z,21.64
2022-09-04T10:01:00.362Z,21.93
2022-09-04T10:03:39.693Z,21.97
2022-09-04T10:06:24.131Z,21.81
2022-09-04T10:09:05.919Z,21.81
2022-09-04T10:11:53.717Z,22.05
2022-09-04T10:14:38.894Z,22.23
2022-09-04T10:17:33.637Z,22.37
2022-09-04T10:20:21.632Z,22.50
2022-09-04T10:23:04.078Z,22.40
2022-09-04T10:25:55.507Z,22.54
2022-09-04T10:28:40.796Z,22.25
2022-09-04T10:31:10.428Z,22.33
2022-09-04T10:34:13.280Z,22.35
2022-09-04T10:37:02.082Z,22.67
2022-09-04T10:40:26.162Z,22.85
2022-09-04T10:43:17.224Z,23.05
2022-09-04T10:46:13.717Z,22.80
2022-09-04T10:49:18.255Z,22.32
2022-09-04T10:52:17.170Z,22.36
2022-09-04T10:55:05.544Z,22.70
2022-09-04T10:58:10.587Z,23.02
2022-09-04T11:00:52.290Z,23.01
2022-09-04T11:03:58.383Z,23.05
2022-09-04T11:06:52.819Z,22.98
2022-09-04T11:09:43.482Z,23.00
2022-09-04T11:12:16.119Z,23.01
2022-09-04T11:15:26.536Z,22.92
2022-09-04T11:18:06.202Z,22.77
2022-09-04T11:20:57.111Z,22.79
2022-09-04T11:23:39.108Z,23.11
2022-09-04T11:26:13.947Z,23.27
2022-09-04T11:29:12.785Z,23.49
2022-09-04T11:32:00.094Z,23.83
2022-09-04T11:35:13.903Z,24.14
2022-09-04T11:37:46.492Z,24.09
2022-09-04T11:40:28.993Z,23.98
2022-09-04T11:43:30.261Z,23.96
2022-09-04T11:46:15.172Z,23.69
2022-09-04T11:49:09.751Z,23.71
2022-09-04T11:52:04.087Z,23.91
2022-09-04T11:55:04.526Z,23.76
2022-09-04T11:57:58.875Z,23.91
2022-09-04T12:00:27.820Z,24.16
2022-09-04T12:03:34.324Z,24.60
2022-09-04T12:06:28.657Z,24.74
2022-09-04T12:09:13.956Z,25.00
2022-09-04T12:12:17.215Z,25.33
2022-09-04T12:15:12.430Z,25.59
2022-09-04T12:18:16.170Z,25.74
2022-09-04T12:21:02.672Z,25.95
2022-09-04T12:23:47.899Z,26.12
2022-09-04T12:26:26.638Z,25.98
2022-09-04T12:29:19.953Z,25.40
2022-09-04T12:32:29.244Z,25.46
2022-09-04T12:35:32.019Z,25.77
2022-09-04T12:38:21.364Z,25.89
2022-09-04T12:41:01.499Z,25.90
2022-09-04T12:43:31.357Z,26.11
2022-09-04T12:46:36.570Z,26.10
2022-09-04T12:49:26.285Z,26.01
2022-09-04T12:52:04.947Z,25.93
2022-09-04T12:54:51.991Z,26.12
2022-09-04T12:57:45.601Z,26.08
2022-09-04T13:00:17.543Z,25.95
2022-09-04T13:03:20.142Z,26.03
2022-09-04T13:06:04.243Z,26.23
2022-09-04T13:09:21.164Z,26.04
2022-09-04T13:12:10.577Z,26.05
2022-09-04T13:14:38.328Z,26.37
2022-09-04T13:17:33.894Z,26.44
2022-09-04T13:20:09.902Z,26.60
2022-09-04T13:22:46.367Z,26.73
2022-09-04T13:25:31.426Z,26.66
2022-09-04T13:28:19.247Z,26.49
2022-09-04T13:31:01.313Z,26.28
2022-09-04T13:33:58.597Z,26.32
2022-09-04T13:36:40.018Z,26.37
2022-09-04T13:39:21.652Z,26.48
2022-09-04T13:42:13.340Z,26.64
2022-09-04T13:44:56.896Z,26.43
2022-09-04T13:47:32.055Z,26.43
2022-09-04T13:50:12.052Z,26.59
2022-09-04T13:52:45.792Z,26.75
2022-09-04T13:55:39.964Z,26.93
2022-09-04T13:58:13.880Z,27.06
2022-09-04T14:00:57.074Z,26.79
2022-09-04T14:03:42.070Z,26.86
2022-09-04T14:06:13.040Z,26.94
2022-09-04T14:08:39.905Z,26.92
2022-09-04T14:11:44.490Z,26.86
2022-09-04T14:14:30.838Z,26.77
2022-09-04T14:17:00.116Z,26.89
2022-09-04T14:19:43.455Z,26.94
2022-09-04T14:22:52.321Z,26.85
2022-09-04T14:25:53.452Z,26.75
2022-09-04T14:28:53.994Z,26.52
2022-09-04T14:31:40.401Z,26.45
2022-09-04T14:34:41.100Z,26.43
2022-09-04T14:37:08.116Z,26.57
2022-09-04T14:40:03.608Z,26.61
2022-09-04T14:42:41.617Z,26.73
2022-09-04T14:45:32.320Z,26.90
2022-09-04T14:48:07.764Z,26.78
2022-09-04T14:50:48.091Z,26.80
2022-09-04T14:53:23.150Z,26.99
2022-09-04T14:56:12.815Z,27.17
2022-09-04T14:58:56.457Z,27.09
2022-09-04T15:01:25.023Z,26.83
2022-09-04T15:04:06.746Z,26.76
2022-09-04T15:07:09.846Z,26.58
2022-09-04T15:09:45.735Z,26.57
2022-09-04T15:12:36.086Z,26.72
2022-09-04T15:15:40.997Z,26.79
2022-09-04T15:18:45.362Z,26.80
2022-09-04T15:21:22.410Z,26.63
2022-09-04T15:24:00.163Z,26.60
2022-09-04T15:26:35.640Z,26.53
2022-09-04T15:29:22.956Z,26.32
2022-09-04T15:31:59.843Z,26.49
2022-09-04T15:34:27.661Z,26.39
2022-09-04T15:36:54.675Z,26.42
2022-09-04T15:39:31.261Z,26.40
2022-09-04T15:42:00.014Z,26.47
2022-09-04T15:44:39.425Z,26.47
2022-09-04T15:47:36.500Z,26.44
2022-09-04T15:50:20.988Z,26.27
2022-09-04T15:53:12.981Z,26.19
2022-09-04T15:55:44.421Z,26.04
2022-09-04T15:58:30.256Z,26.10
2022-09-04T16:01:06.177Z,26.10
2022-09-04T16:03:40.248Z,26.08
2022-09-04T16:06:19.391Z,26.02
2022-09-04T16:09:04.439Z,26.04
2022-09-04T16:11:45.052Z,26.02
2022-09-04T16:14:16.886Z,26.06
2022-09-04T16:16:48.672Z,25.98
2022-09-04T16:19:33.676Z,26.10
2022-09-04T16:22:18.773Z,26.10
2022-09-04T16:24:48.229Z,26.01
2022-09-04T16:27:22.735Z,25.92
2022-09-04T16:30:05.020Z,25.89
2022-09-04T16:32:35.267Z,25.89
2022-09-04T16:35:06.764Z,25.87
2022-09-04T16:37:52.842Z,25.86
2022-09-04T16:40:45.518Z,25.84
2022-09-04T16:43:15.351Z,25.86
2022-09-04T16:46:07.803Z,25.82
2022-09-04T16:49:02.298Z,25.80
2022-09-04T16:51:39.656Z,25.76
2022-09-04T16:54:28.906Z,25.78
2022-09-04T16:57:12.059Z,25.74
2022-09-04T16:59:55.712Z,25.64
2022-09-04T17:02:35.863Z,25.54
2022-09-04T17:05:10.475Z,25.42
2022-09-04T17:07:44.769Z,25.28
2022-09-04T17:10:26.344Z,25.32
2022-09-04T17:13:27.740Z,25.26
2022-09-04T17:16:14.043Z,25.17
2022-09-04T17:18:47.161Z,25.05
2022-09-04T17:25:43.321Z,25.00
2022-09-04T17:29:02.473Z,25.02
2022-09-04T17:29:15.424Z,24.94
2022-09-04T17:30:49.867Z,24.86
2022-09-04T17:40:06.238Z,24.79
2022-09-04T17:40:47.897Z,24.61
2022-09-04T17:40:55.435Z,24.65
2022-09-04T17:42:29.751Z,24.58
2022-09-04T17:45:08.989Z,24.51
2022-09-04T17:47:43.718Z,24.46
2022-09-04T17:50:16.466Z,24.40
2022-09-04T17:53:12.080Z,24.35
2022-09-04T17:55:48.054Z,24.23
2022-09-04T17:59:15.384Z,24.27
2022-09-04T18:01:50.974Z,24.12
2022-09-04T18:04:35.697Z,24.13
2022-09-04T18:07:28.676Z,23.93
2022-09-04T18:10:17.330Z,23.97
2022-09-04T18:13:01.416Z,23.75
2022-09-04T18:15:49.066Z,23.81
2022-09-04T18:18:41.513Z,23.76
2022-09-04T18:21:31.844Z,23.69
2022-09-04T18:24:10.195Z,23.23
2022-09-04T18:26:47.015Z,23.57
2022-09-04T18:35:34.846Z,23.54
2022-09-04T18:37:07.185Z,23.47
2022-09-04T18:37:16.159Z,23.38
2022-09-04T18:39:24.265Z,23.32
2022-09-04T18:46:28.739Z,23.28
2022-09-04T18:50:22.543Z,23.19
2022-09-04T18:50:38.247Z,23.12
2022-09-04T18:53:48.555Z,22.93
2022-09-04T18:56:55.457Z,22.83
2022-09-04T18:59:29.992Z,22.64
2022-09-04T19:02:05.795Z,22.66
2022-09-04T19:07:57.367Z,22.46
2022-09-04T19:10:37.055Z,22.28
2022-09-04T19:13:10.109Z,22.23
2022-09-04T19:15:50.336Z,22.21
2022-09-04T19:18:33.654Z,22.21
2022-09-04T19:21:57.648Z,22.05
2022-09-04T19:24:34.346Z,22.04
2022-09-04T19:27:05.903Z,21.95
2022-09-04T19:30:03.200Z,21.84
2022-09-04T19:32:59.875Z,21.88
2022-09-04T19:35:32.267Z,21.86
2022-09-04T19:40:30.186Z,21.78
2022-09-04T19:46:12.322Z,21.69
2022-09-04T19:46:19.314Z,21.76
2022-09-04T19:46:51.706Z,21.57
2022-09-04T19:53:19.676Z,21.55
2022-09-04T19:53:34.661Z,21.48
2022-09-04T19:55:45.676Z,21.40
2022-09-04T19:58:20.315Z,21.34
2022-09-04T20:00:59.445Z,21.19
2022-09-04T20:03:37.867Z,21.21
2022-09-04T20:06:21.550Z,21.21
2022-09-04T20:09:11.130Z,21.05
2022-09-04T20:11:47.692Z,21.11
2022-09-04T20:14:46.995Z,21.07
2022-09-04T20:17:41.668Z,20.97
2022-09-04T20:20:45.058Z,20.92
2022-09-04T20:23:43.854Z,20.92
2022-09-04T20:26:17.854Z,20.93
2022-09-04T20:28:56.961Z,20.74
2022-09-04T20:31:36.834Z,20.81
2022-09-04T20:34:15.944Z,20.79
2022-09-04T20:36:49.757Z,20.60
2022-09-04T20:39:26.800Z,20.60
2022-09-04T20:42:06.544Z,20.68
2022-09-04T20:45:20.359Z,20.62
2022-09-04T20:52:46.283Z,20.58
2022-09-04T20:52:57.193Z,20.42
2022-09-04T20:53:29.387Z,20.47
2022-09-04T20:55:58.752Z,20.47
2022-09-04T21:02:37.891Z,20.44
2022-09-04T21:03:24.845Z,20.40
2022-09-04T21:04:42.097Z,20.35
2022-09-04T21:07:19.541Z,20.29
2022-09-04T21:10:25.750Z,20.29
2022-09-04T21:13:13.285Z,20.25
2022-09-04T21:16:11.712Z,20.20
2022-09-04T21:18:45.919Z,20.06
2022-09-04T21:22:01.204Z,20.15
2022-09-04T21:24:33.380Z,20.12
2022-09-04T21:27:12.473Z,20.00
2022-09-04T21:29:59.361Z,20.03
2022-09-04T21:32:43.924Z,19.96
2022-09-04T21:35:19.992Z,19.89
2022-09-04T21:38:09.369Z,19.77
2022-09-04T21:41:01.699Z,19.83
2022-09-04T21:43:55.376Z,19.75
2022-09-04T21:46:43.980Z,19.77
2022-09-04T21:49:31.702Z,19.88
2022-09-04T21:52:10.080Z,19.73
2022-09-04T22:01:04.790Z,19.68
2022-09-04T22:02:40.459Z,19.61
2022-09-04T22:02:45.030Z,19.75
2022-09-04T22:04:15.277Z,19.67
2022-09-04T22:08:15.115Z,19.63
2022-09-04T22:13:33.384Z,19.62
2022-09-04T22:13:43.376Z,19.57
2022-09-04T22:16:07.514Z,19.51
2022-09-04T22:18:47.560Z,19.33
2022-09-04T22:21:26.707Z,19.32
2022-09-04T22:24:39.717Z,19.33
2022-09-04T22:27:35.935Z,19.32
2022-09-04T22:30:21.122Z,19.30
2022-09-04T22:33:08.954Z,19.24
2022-09-04T22:36:13.304Z,19.11
2022-09-04T22:39:00.450Z,18.98
2022-09-04T22:41:51.783Z,18.77
2022-09-04T22:44:56.355Z,18.87
2022-09-04T22:47:54.569Z,18.92
2022-09-04T22:50:29.044Z,18.72
2022-09-04T22:53:35.770Z,18.77
2022-09-04T22:56:24.293Z,18.69
2022-09-04T22:59:38.884Z,18.65
2022-09-04T23:02:17.213Z,18.43
2022-09-04T23:04:52.735Z,18.47
2022-09-04T23:12:28.523Z,18.43
2022-09-04T23:13:50.443Z,18.38
2022-09-04T23:14:31.131Z,18.36
2022-09-04T23:17:32.533Z,18.32
2022-09-04T23:26:36.319Z,18.25
2022-09-04T23:26:57.961Z,18.24
2022-09-04T23:27:28.446Z,18.22
2022-09-04T23:30:13.899Z,18.17
2022-09-04T23:32:55.127Z,18.14
2022-09-04T23:35:36.877Z,18.12
2022-09-04T23:38:22.119Z,18.02
2022-09-04T23:41:07.509Z,18.17
2022-09-04T23:44:04.782Z,18.19
2022-09-04T23:46:54.901Z,18.10
2022-09-04T23:49:40.361Z,18.11
2022-09-04T23:52:31.222Z,17.91
2022-09-04T23:55:49.138Z,18.00
2022-09-04T23:59:06.266Z,18.01
